createdAt,value
2023-04-02T00:02:33.895Z,101577.28
2023-04-02T00:05:51.531Z,101578.19
2023-04-02T00:08:38.741Z,101592.63
2023-04-02T00:11:07.947Z,101590.44
2023-04-02T00:13:40.374Z,101591.44
2023-04-02T00:16:14.267Z,101605.66
2023-04-02T00:18:47.515Z,101603.31
2023-04-02T00:21:22.288Z,101614.78
2023-04-02T00:23:50.478Z,101614.13
2023-04-02T00:26:24.566Z,101621.41
2023-04-02T00:28:52.964Z,101626.66
2023-04-02T00:31:22.720Z,101627.84
2023-04-02T00:33:51.774Z,101626.72
2023-04-02T00:36:22.094Z,101627.94
2023-04-02T00:38:50.291Z,101629.66
2023-04-02T00:41:23.399Z,101644.25
2023-04-02T00:43:51.763Z,101636.91
2023-04-02T00:46:24.974Z,101642.06
2023-04-02T00:48:58.681Z,101645.31
2023-04-02T00:51:30.803Z,101655.59
2023-04-02T00:54:01.840Z,101648.00
2023-04-02T00:56:32.188Z,101653.06
2023-04-02T00:59:00.496Z,101653.28
2023-04-02T01:01:36.500Z,101652.22
2023-04-02T01:04:06.113Z,101652.88
2023-04-02T01:06:37.434Z,101650.47
2023-04-02T01:09:19.514Z,101667.16
2023-04-02T01:12:11.515Z,101657.75
2023-04-02T01:14:46.635Z,101670.50
2023-04-02T01:17:33.785Z,101664.84
2023-04-02T01:20:26.434Z,101673.63
2023-04-02T01:23:02.495Z,101680.75
2023-04-02T01:25:37.472Z,101681.38
2023-04-02T01:28:11.701Z,101687.50
2023-04-02T01:30:42.359Z,101693.47
2023-04-02T01:33:10.205Z,101700.66
2023-04-02T01:35:42.461Z,101703.16
2023-04-02T01:38:15.347Z,101703.06
2023-04-02T01:40:48.336Z,101705.28
2023-04-02T01:43:23.561Z,101694.56
2023-04-02T01:45:53.388Z,101702.03
2023-04-02T01:48:27.415Z,101705.06
2023-04-02T01:50:57.793Z,101717.13
2023-04-02T01:53:28.823Z,101717.97
2023-04-02T01:55:59.394Z,101718.53
2023-04-02T01:58:30.078Z,101721.88
2023-04-02T02:01:02.092Z,101721.75
2023-04-02T02:03:30.347Z,101739.69
2023-04-02T02:05:58.810Z,101725.22
2023-04-02T02:08:38.234Z,101736.09
2023-04-02T02:11:06.917Z,101736.72
2023-04-02T02:13:34.833Z,101750.50
2023-04-02T02:16:06.072Z,101751.75
2023-04-02T02:18:34.276Z,101739.91
2023-04-02T02:21:06.182Z,101753.34
2023-04-02T02:23:34.227Z,101754.94
2023-04-02T02:26:02.033Z,101760.69
2023-04-02T02:28:34.248Z,101766.16
2023-04-02T02:31:07.423Z,101762.66
2023-04-02T02:33:39.895Z,101772.50
2023-04-02T02:36:17.103Z,101776.72
2023-04-02T02:38:55.619Z,101774.84
2023-04-02T02:41:29.934Z,101786.75
2023-04-02T02:44:03.257Z,101782.84
2023-04-02T02:46:34.871Z,101798.25
2023-04-02T02:49:05.399Z,101809.72
2023-04-02T02:51:41.874Z,101811.75
2023-04-02T02:54:09.930Z,101810.25
2023-04-02T02:56:43.007Z,101817.69
2023-04-02T02:59:13.431Z,101818.50
2023-04-02T03:01:44.443Z,101826.44
2023-04-02T03:04:12.589Z,101827.91
2023-04-02T03:06:41.824Z,101826.97
2023-04-02T03:09:20.546Z,101821.91
2023-04-02T03:11:53.462Z,101831.25
2023-04-02T03:14:27.510Z,101832.41
2023-04-02T03:17:01.769Z,101838.84
2023-04-02T03:19:36.173Z,101846.84
2023-04-02T03:22:09.698Z,101855.88
2023-04-02T03:24:42.545Z,101850.06
2023-04-02T03:27:16.352Z,101861.41
2023-04-02T03:29:52.510Z,101870.13
2023-04-02T03:32:24.665Z,101867.09
2023-04-02T03:34:57.378Z,101869.09
2023-04-02T03:37:29.163Z,101884.09
2023-04-02T03:40:01.244Z,101881.84
2023-04-02T03:42:37.178Z,101893.44
2023-04-02T03:45:12.264Z,101880.31
2023-04-02T03:47:46.419Z,101893.28
2023-04-02T03:50:21.244Z,101888.47
2023-04-02T03:52:49.770Z,101899.56
2023-04-02T03:55:21.458Z,101900.06
2023-04-02T03:57:57.027Z,101907.34
2023-04-02T04:00:33.576Z,101911.50
2023-04-02T04:03:11.165Z,101907.78
2023-04-02T04:05:48.340Z,101907.38
2023-04-02T04:08:19.803Z,101915.84
2023-04-02T04:10:52.526Z,101923.91
2023-04-02T04:13:25.877Z,101925.25
2023-04-02T04:15:58.901Z,101928.16
2023-04-02T04:18:37.970Z,101925.09
2023-04-02T04:21:13.047Z,101933.56
2023-04-02T04:23:50.712Z,101943.66
2023-04-02T04:26:24.641Z,101949.00
2023-04-02T04:29:05.492Z,101956.22
2023-04-02T04:31:39.832Z,101954.13
2023-04-02T04:34:16.432Z,101958.75
2023-04-02T04:36:48.052Z,101969.44
2023-04-02T04:39:23.934Z,101963.75
2023-04-02T04:41:54.499Z,101968.94
2023-04-02T04:44:24.820Z,101972.94
2023-04-02T04:46:58.465Z,101979.63
2023-04-02T04:49:33.440Z,101977.31
2023-04-02T04:52:09.016Z,101988.13
2023-04-02T04:54:39.060Z,101991.25
2023-04-02T04:57:17.689Z,101997.31
2023-04-02T04:59:52.693Z,102010.91
2023-04-02T05:02:27.833Z,102015.78
2023-04-02T05:04:58.227Z,102021.31
2023-04-02T05:07:29.418Z,102024.88
2023-04-02T05:10:00.925Z,102031.19
2023-04-02T05:12:36.507Z,102034.94
2023-04-02T05:15:15.211Z,102034.06
2023-04-02T05:17:51.236Z,102047.91
2023-04-02T05:20:26.096Z,102050.38
2023-04-02T05:22:58.723Z,102054.16
2023-04-02T05:25:28.381Z,102062.13
2023-04-02T05:28:03.414Z,102075.47
2023-04-02T05:30:41.290Z,102070.22
2023-04-02T05:33:21.981Z,102075.41
2023-04-02T05:35:58.993Z,102080.81
2023-04-02T05:38:29.239Z,102082.66
2023-04-02T05:41:02.031Z,102088.66
2023-04-02T05:43:32.988Z,102087.66
2023-04-02T05:46:04.928Z,102095.56
2023-04-02T05:48:37.076Z,102095.19
2023-04-02T05:51:09.412Z,102101.78
2023-04-02T05:53:41.632Z,102106.31
2023-04-02T05:56:17.480Z,102111.13
2023-04-02T05:58:49.177Z,102106.44
2023-04-02T06:01:25.122Z,102113.81
2023-04-02T06:04:00.288Z,102120.88
2023-04-02T06:06:46.473Z,102126.22
2023-04-02T06:09:19.270Z,102133.75
2023-04-02T06:11:52.112Z,102135.75
2023-04-02T06:14:19.906Z,102138.91
2023-04-02T06:16:47.967Z,102137.53
2023-04-02T06:19:19.941Z,102140.94
2023-04-02T06:21:52.075Z,102140.66
2023-04-02T06:24:24.837Z,102146.94
2023-04-02T06:26:58.558Z,102148.22
2023-04-02T06:29:34.034Z,102148.63
2023-04-02T06:32:03.131Z,102161.16
2023-04-02T06:34:32.794Z,102155.63
2023-04-02T06:37:04.803Z,102160.09
2023-04-02T06:39:32.521Z,102173.16
2023-04-02T06:42:04.131Z,102178.03
2023-04-02T06:44:35.248Z,102165.81
2023-04-02T06:47:07.297Z,102175.16
2023-04-02T06:49:39.776Z,102180.56
2023-04-02T06:52:15.019Z,102180.78
2023-04-02T06:54:42.754Z,102188.31
2023-04-02T06:57:13.125Z,102188.19
2023-04-02T06:59:41.105Z,102188.03
2023-04-02T07:02:27.087Z,102194.88
2023-04-02T07:05:05.860Z,102205.56
2023-04-02T07:07:35.083Z,102207.28
2023-04-02T07:10:02.814Z,102210.81
2023-04-02T07:12:30.539Z,102221.28
2023-04-02T07:14:58.232Z,102218.91
2023-04-02T07:17:26.039Z,102227.75
2023-04-02T07:19:53.980Z,102223.94
2023-04-02T07:22:22.204Z,102238.94
2023-04-02T07:24:51.309Z,102228.59
2023-04-02T07:27:19.104Z,102233.00
2023-04-02T07:29:46.810Z,102237.69
2023-04-02T07:32:14.721Z,102243.81
2023-04-02T07:34:42.598Z,102250.44
2023-04-02T07:37:15.135Z,102243.13
2023-04-02T07:39:42.843Z,102256.47
2023-04-02T07:42:11.963Z,102253.75
2023-04-02T07:44:39.632Z,102271.44
2023-04-02T07:47:08.557Z,102263.28
2023-04-02T07:49:36.276Z,102255.78
2023-04-02T07:52:04.790Z,102265.66
2023-04-02T07:54:32.486Z,102269.19
2023-04-02T07:57:00.295Z,102266.19
2023-04-02T07:59:29.359Z,102277.31
2023-04-02T08:01:57.857Z,102288.25
2023-04-02T08:04:25.672Z,102280.81
2023-04-02T08:06:53.973Z,102288.03
2023-04-02T08:09:21.987Z,102288.53
2023-04-02T08:11:49.682Z,102289.09
2023-04-02T08:14:17.425Z,102290.88
2023-04-02T08:16:49.261Z,102287.97
2023-04-02T08:19:17.422Z,102301.59
2023-04-02T08:21:45.298Z,102305.88
2023-04-02T08:24:13.019Z,102309.19
2023-04-02T08:26:41.054Z,102316.47
2023-04-02T08:29:08.776Z,102315.97
2023-04-02T08:31:36.512Z,102314.75
2023-04-02T08:34:05.937Z,102320.47
2023-04-02T08:36:37.209Z,102326.19
2023-04-02T08:39:06.472Z,102326.84
2023-04-02T08:41:38.979Z,102334.22
2023-04-02T08:44:23.370Z,102341.00
2023-04-02T08:46:56.156Z,102347.78
2023-04-02T08:49:30.723Z,102341.47
2023-04-02T08:51:58.653Z,102343.34
2023-04-02T08:54:29.308Z,102343.31
2023-04-02T08:57:02.963Z,102350.03
2023-04-02T08:59:35.469Z,102353.66
2023-04-02T09:02:28.524Z,102356.13
2023-04-02T09:05:01.389Z,102374.50
2023-04-02T09:07:29.463Z,102374.13
2023-04-02T09:09:58.222Z,102373.66
2023-04-02T09:12:28.823Z,102375.81
2023-04-02T09:15:07.316Z,102381.69
2023-04-02T09:17:46.379Z,102384.09
2023-04-02T09:20:26.307Z,102379.13
2023-04-02T09:22:55.079Z,102378.88
2023-04-02T09:25:26.908Z,102382.00
2023-04-02T09:27:57.175Z,102385.28
2023-04-02T09:30:34.385Z,102400.34
2023-04-02T09:33:07.548Z,102382.72
2023-04-02T09:35:38.641Z,102407.47
2023-04-02T09:38:25.049Z,102401.22
2023-04-02T09:40:59.514Z,102404.88
2023-04-02T09:43:29.455Z,102411.66
2023-04-02T09:46:00.337Z,102400.09
2023-04-02T09:48:31.448Z,102406.38
2023-04-02T09:51:14.456Z,102411.44
2023-04-02T09:53:43.543Z,102401.16
2023-04-02T09:56:14.704Z,102407.19
2023-04-02T09:58:45.110Z,102416.03
2023-04-02T10:01:30.883Z,102423.00
2023-04-02T10:04:00.140Z,102434.03
2023-04-02T10:06:31.359Z,102440.06
2023-04-02T10:08:59.291Z,102429.91
2023-04-02T10:11:43.694Z,102429.38
2023-04-02T10:14:20.092Z,102430.38
2023-04-02T10:16:52.990Z,102430.47
2023-04-02T10:19:29.962Z,102431.72
2023-04-02T10:22:00.802Z,102436.63
2023-04-02T10:24:29.656Z,102455.69
2023-04-02T10:27:17.570Z,102449.16
2023-04-02T10:30:02.210Z,102459.06
2023-04-02T10:32:35.035Z,102448.75
2023-04-02T10:35:07.394Z,102447.00
2023-04-02T10:37:55.881Z,102451.44
2023-04-02T10:40:29.466Z,102454.63
2023-04-02T10:43:16.175Z,102462.09
2023-04-02T10:45:48.385Z,102457.72
2023-04-02T10:48:23.876Z,102465.66
2023-04-02T10:51:01.990Z,102472.53
2023-04-02T10:53:38.831Z,102476.97
2023-04-02T10:56:11.150Z,102495.78
2023-04-02T10:58:44.084Z,102497.72
2023-04-02T11:01:18.721Z,102509.78
2023-04-02T11:03:49.822Z,102507.69
2023-04-02T11:06:22.300Z,102530.38
2023-04-02T11:08:53.582Z,102520.13
2023-04-02T11:11:24.806Z,102524.34
2023-04-02T11:13:58.896Z,102499.31
2023-04-02T11:16:27.973Z,102525.16
2023-04-02T11:19:24.521Z,102534.19
2023-04-02T11:21:59.688Z,102532.00
2023-04-02T11:24:45.716Z,102533.03
2023-04-02T11:27:21.801Z,102528.25
2023-04-02T11:29:52.812Z,102536.50
2023-04-02T11:32:39.461Z,102554.53
2023-04-02T11:35:36.862Z,102552.38
2023-04-02T11:38:43.653Z,102562.72
2023-04-02T11:41:12.867Z,102564.78
2023-04-02T11:44:01.535Z,102556.69
2023-04-02T11:46:46.430Z,102564.75
2023-04-02T11:49:39.699Z,102581.97
2023-04-02T11:52:23.460Z,102582.06
2023-04-02T11:55:00.872Z,102572.44
2023-04-02T11:57:44.427Z,102574.44
2023-04-02T12:00:25.554Z,102582.41
2023-04-02T12:03:04.479Z,102571.63
2023-04-02T12:05:39.384Z,102577.78
2023-04-02T12:08:25.122Z,102583.44
2023-04-02T12:10:57.651Z,102597.28
2023-04-02T12:13:51.979Z,102600.88
2023-04-02T12:16:20.650Z,102609.19
2023-04-02T12:18:53.744Z,102608.47
2023-04-02T12:21:24.131Z,102608.91
2023-04-02T12:23:54.633Z,102614.16
2023-04-02T12:26:30.084Z,102618.59
2023-04-02T12:29:24.776Z,102628.13
2023-04-02T12:31:53.991Z,102610.97
2023-04-02T12:34:23.705Z,102616.28
2023-04-02T12:36:56.526Z,102642.88
2023-04-02T12:39:27.403Z,102626.69
2023-04-02T12:41:56.535Z,102637.94
2023-04-02T12:44:28.079Z,102638.38
2023-04-02T12:46:56.628Z,102641.03
2023-04-02T12:49:35.715Z,102627.06
2023-04-02T12:52:05.649Z,102650.22
2023-04-02T12:54:38.126Z,102655.75
2023-04-02T12:57:23.882Z,102649.81
2023-04-02T12:59:53.718Z,102658.22
2023-04-02T13:02:23.245Z,102661.53
2023-04-02T13:04:52.293Z,102671.09
2023-04-02T13:07:23.116Z,102665.13
2023-04-02T13:09:52.854Z,102647.53
2023-04-02T13:12:28.649Z,102653.72
2023-04-02T13:15:00.045Z,102676.50
2023-04-02T13:17:42.460Z,102679.09
2023-04-02T13:20:33.249Z,102676.00
2023-04-02T13:23:03.432Z,102674.97
2023-04-02T13:25:35.702Z,102680.38
2023-04-02T13:28:03.662Z,102678.00
2023-04-02T13:30:32.739Z,102661.81
2023-04-02T13:33:00.527Z,102674.44
2023-04-02T13:35:28.249Z,102699.41
2023-04-02T13:37:56.233Z,102694.28
2023-04-02T13:40:24.533Z,102676.28
2023-04-02T13:42:52.311Z,102688.13
2023-04-02T13:45:25.403Z,102713.09
2023-04-02T13:47:57.244Z,102701.19
2023-04-02T13:50:25.676Z,102711.88
2023-04-02T13:52:54.629Z,102698.25
2023-04-02T13:55:25.969Z,102695.66
2023-04-02T13:57:53.688Z,102711.41
2023-04-02T14:00:21.705Z,102719.19
2023-04-02T14:02:53.576Z,102724.31
2023-04-02T14:05:33.760Z,102706.22
2023-04-02T14:08:09.028Z,102713.09
2023-04-02T14:10:59.556Z,102717.66
2023-04-02T14:14:04.413Z,102722.75
2023-04-02T14:16:47.402Z,102722.59
2023-04-02T14:19:31.067Z,102724.66
2023-04-02T14:22:11.921Z,102729.53
2023-04-02T14:24:51.279Z,102724.56
2023-04-02T14:27:26.784Z,102721.06
2023-04-02T14:29:59.373Z,102742.53
2023-04-02T14:32:33.057Z,102745.97
2023-04-02T14:35:11.548Z,102748.38
2023-04-02T14:37:45.991Z,102736.25
2023-04-02T14:40:22.468Z,102743.28
2023-04-02T14:42:56.729Z,102727.19
2023-04-02T14:45:39.339Z,102734.56
2023-04-02T14:48:21.215Z,102730.91
2023-04-02T14:50:50.627Z,102745.47
2023-04-02T14:53:26.493Z,102755.69
2023-04-02T14:55:58.255Z,102737.38
2023-04-02T14:58:30.447Z,102742.09
2023-04-02T15:01:01.912Z,102779.44
2023-04-02T15:03:35.841Z,102777.13
2023-04-02T15:06:06.458Z,102774.97
2023-04-02T15:08:39.444Z,102790.88
2023-04-02T15:11:11.515Z,102780.41
2023-04-02T15:13:44.115Z,102774.59
2023-04-02T15:16:15.793Z,102770.13
2023-04-02T15:18:43.545Z,102783.75
2023-04-02T15:21:29.569Z,102772.75
2023-04-02T15:24:05.046Z,102786.84
2023-04-02T15:26:40.776Z,102774.75
2023-04-02T15:29:28.686Z,102776.84
2023-04-02T15:32:04.039Z,102783.06
2023-04-02T15:34:35.783Z,102808.28
2023-04-02T15:37:15.453Z,102797.81
2023-04-02T15:39:56.628Z,102799.97
2023-04-02T15:42:28.997Z,102813.47
2023-04-02T15:45:19.786Z,102816.34
2023-04-02T15:48:00.820Z,102833.84
2023-04-02T15:50:45.065Z,102826.56
2023-04-02T15:53:29.240Z,102838.19
2023-04-02T15:56:14.111Z,102825.09
2023-04-02T15:58:55.811Z,102828.63
2023-04-02T16:01:32.316Z,102830.41
2023-04-02T16:04:19.789Z,102838.91
2023-04-02T16:07:02.585Z,102827.56
2023-04-02T16:09:39.431Z,102837.66
2023-04-02T16:12:16.270Z,102839.31
2023-04-02T16:14:46.268Z,102838.91
2023-04-02T16:17:24.988Z,102844.56
2023-04-02T16:19:57.695Z,102865.06
2023-04-02T16:22:28.984Z,102867.69
2023-04-02T16:25:01.177Z,102872.81
2023-04-02T16:27:35.364Z,102862.03
2023-04-02T16:30:23.791Z,102866.47
2023-04-02T16:33:08.696Z,102865.78
2023-04-02T16:35:46.428Z,102865.56
2023-04-02T16:38:26.296Z,102872.47
2023-04-02T16:41:08.190Z,102873.06
2023-04-02T16:43:50.496Z,102882.09
2023-04-02T16:46:38.381Z,102876.66
2023-04-02T16:49:18.227Z,102883.44
2023-04-02T16:51:54.253Z,102889.00
2023-04-02T16:54:29.223Z,102882.03
2023-04-02T16:57:14.735Z,102895.00
2023-04-02T16:59:50.328Z,102891.94
2023-04-02T17:02:31.939Z,102893.44
2023-04-02T17:05:13.619Z,102898.63
2023-04-02T17:07:45.991Z,102901.72
2023-04-02T17:10:31.071Z,102909.22
2023-04-02T17:13:17.688Z,102913.63
2023-04-02T17:15:50.828Z,102908.00
2023-04-02T17:18:20.353Z,102920.47
2023-04-02T17:20:48.778Z,102923.16
2023-04-02T17:23:18.784Z,102933.06
2023-04-02T17:25:51.676Z,102935.59
2023-04-02T17:28:25.600Z,102954.53
2023-04-02T17:30:57.576Z,102945.50
2023-04-02T17:33:27.321Z,102961.31
2023-04-02T17:36:22.231Z,102968.78
2023-04-02T17:39:02.522Z,102976.63
2023-04-02T17:41:37.636Z,102970.56
2023-04-02T17:44:18.395Z,102971.72
2023-04-02T17:46:56.276Z,102968.94
2023-04-02T17:49:32.780Z,102983.38
2023-04-02T17:52:06.441Z,102987.31
2023-04-02T17:54:43.612Z,102992.78
2023-04-02T17:57:26.833Z,102989.28
2023-04-02T18:00:10.793Z,102997.66
2023-04-02T18:03:06.373Z,102989.28
2023-04-02T18:05:41.060Z,103003.47
2023-04-02T18:08:16.137Z,102997.28
2023-04-02T18:10:51.739Z,103009.16
2023-04-02T18:13:32.013Z,103014.63
2023-04-02T18:16:10.951Z,103018.88
2023-04-02T18:19:05.940Z,103017.38
2023-04-02T18:21:43.432Z,103023.59
2023-04-02T18:24:42.581Z,103020.31
2023-04-02T18:27:25.677Z,103027.53
2023-04-02T18:30:00.985Z,103029.91
2023-04-02T18:32:42.729Z,103039.56
2023-04-02T18:35:21.351Z,103035.81
2023-04-02T18:38:05.134Z,103041.97
2023-04-02T18:40:43.304Z,103039.50
2023-04-02T18:43:22.020Z,103045.44
2023-04-02T18:45:56.290Z,103052.41
2023-04-02T18:48:42.080Z,103055.94
2023-04-02T18:51:18.164Z,103056.72
2023-04-02T18:53:47.501Z,103056.44
2023-04-02T18:56:19.729Z,103064.63
2023-04-02T18:58:53.065Z,103069.72
2023-04-02T19:01:28.345Z,103066.34
2023-04-02T19:04:02.735Z,103075.31
2023-04-02T19:06:37.950Z,103075.88
2023-04-02T19:09:12.778Z,103070.28
2023-04-02T19:11:40.524Z,103081.47
2023-04-02T19:14:12.803Z,103087.56
2023-04-02T19:17:01.601Z,103077.72
2023-04-02T19:19:31.653Z,103079.38
2023-04-02T19:22:13.417Z,103091.94
2023-04-02T19:24:56.908Z,103081.06
2023-04-02T19:27:32.546Z,103091.09
2023-04-02T19:30:11.629Z,103091.47
2023-04-02T19:32:50.393Z,103092.88
2023-04-02T19:35:24.088Z,103094.00
2023-04-02T19:38:14.644Z,103098.97
2023-04-02T19:40:51.413Z,103101.53
2023-04-02T19:43:19.252Z,103102.78
2023-04-02T19:45:49.317Z,103106.88
2023-04-02T19:48:20.110Z,103106.47
2023-04-02T19:50:48.890Z,103117.13
2023-04-02T19:53:18.450Z,103126.94
2023-04-02T19:55:47.169Z,103133.47
2023-04-02T19:58:23.207Z,103132.13
2023-04-02T20:00:50.943Z,103139.19
2023-04-02T20:03:18.701Z,103141.13
2023-04-02T20:05:46.632Z,103144.66
2023-04-02T20:08:14.628Z,103155.09
2023-04-02T20:10:44.590Z,103154.38
2023-04-02T20:13:12.956Z,103155.47
2023-04-02T20:15:41.485Z,103160.97
2023-04-02T20:18:10.462Z,103161.16
2023-04-02T20:20:39.259Z,103165.56
2023-04-02T20:23:07.139Z,103168.31
2023-04-02T20:25:34.872Z,103161.69
2023-04-02T20:28:04.061Z,103167.97
2023-04-02T20:30:33.023Z,103167.53
2023-04-02T20:33:01.087Z,103166.50
2023-04-02T20:35:29.631Z,103167.00
2023-04-02T20:37:57.529Z,103162.72
2023-04-02T20:40:25.441Z,103169.91
2023-04-02T20:42:53.453Z,103172.16
2023-04-02T20:45:22.556Z,103181.47
2023-04-02T20:47:50.339Z,103179.06
2023-04-02T20:50:18.447Z,103187.22
2023-04-02T20:52:46.232Z,103187.84
2023-04-02T20:55:13.945Z,103189.31
2023-04-02T20:57:41.896Z,103196.31
2023-04-02T21:00:12.211Z,103196.69
2023-04-02T21:02:41.369Z,103202.28
2023-04-02T21:05:09.295Z,103209.56
2023-04-02T21:07:37.060Z,103212.53
2023-04-02T21:10:05.588Z,103206.94
2023-04-02T21:12:33.314Z,103210.91
2023-04-02T21:15:02.744Z,103219.25
2023-04-02T21:17:31.168Z,103222.03
2023-04-02T21:20:00.354Z,103211.19
2023-04-02T21:22:28.099Z,103215.19
2023-04-02T21:24:55.887Z,103217.44
2023-04-02T21:27:25.941Z,103230.53
2023-04-02T21:29:54.035Z,103231.84
2023-04-02T21:32:22.315Z,103228.59
2023-04-02T21:34:50.332Z,103231.72
2023-04-02T21:37:19.429Z,103230.72
2023-04-02T21:39:47.181Z,103230.41
2023-04-02T21:42:15.295Z,103242.19
2023-04-02T21:44:43.019Z,103231.28
2023-04-02T21:47:10.781Z,103226.78
2023-04-02T21:49:38.509Z,103230.16
2023-04-02T21:52:06.290Z,103241.56
2023-04-02T21:54:35.401Z,103232.72
2023-04-02T21:57:03.289Z,103241.63
2023-04-02T21:59:31.062Z,103233.66
2023-04-02T22:01:58.846Z,103239.47
2023-04-02T22:04:28.428Z,103233.00
2023-04-02T22:06:56.248Z,103245.34
2023-04-02T22:09:26.532Z,103238.28
2023-04-02T22:11:58.814Z,103243.22
2023-04-02T22:14:27.407Z,103246.66
2023-04-02T22:16:55.350Z,103245.16
2023-04-02T22:19:23.063Z,103248.97
2023-04-02T22:21:51.545Z,103248.59
2023-04-02T22:24:22.017Z,103247.00
2023-04-02T22:26:50.395Z,103248.22
2023-04-02T22:29:19.500Z,103248.88
2023-04-02T22:31:47.413Z,103256.09
2023-04-02T22:34:15.586Z,103260.38
2023-04-02T22:36:43.630Z,103259.59
2023-04-02T22:39:12.335Z,103257.22
2023-04-02T22:41:40.435Z,103259.72
2023-04-02T22:44:08.131Z,103260.03
2023-04-02T22:46:37.332Z,103263.88
2023-04-02T22:49:05.467Z,103260.19
2023-04-02T22:51:33.164Z,103255.72
2023-04-02T22:54:00.886Z,103271.53
2023-04-02T22:56:32.125Z,103270.03
2023-04-02T22:59:00.729Z,103270.47
2023-04-02T23:01:30.870Z,103269.56
2023-04-02T23:04:00.540Z,103269.28
2023-04-02T23:06:28.988Z,103269.97
2023-04-02T23:08:56.795Z,103275.75
2023-04-02T23:11:27.241Z,103269.53
2023-04-02T23:13:57.064Z,103270.13
2023-04-02T23:16:26.984Z,103266.69
2023-04-02T23:18:55.612Z,103262.69
2023-04-02T23:21:25.587Z,103266.34
2023-04-02T23:23:53.505Z,103262.63
2023-04-02T23:26:22.851Z,103267.66
2023-04-02T23:28:51.406Z,103265.16
2023-04-02T23:31:21.268Z,103266.31
2023-04-02T23:33:49.084Z,103273.44
2023-04-02T23:36:22.221Z,103261.72
2023-04-02T23:38:54.932Z,103269.13
2023-04-02T23:41:24.296Z,103270.72
2023-04-02T23:43:52.786Z,103271.94
2023-04-02T23:46:20.633Z,103277.81
2023-04-02T23:48:50.592Z,103289.66
2023-04-02T23:51:18.996Z,103288.94
2023-04-02T23:53:46.741Z,103293.63
2023-04-02T23:56:15.874Z,103285.47
2023-04-02T23:58:43.759Z,103289.41
